createdAt,value
2019-04-20T00:00:51.506Z,16.79
2019-04-20T00:01:48.648Z,16.79
2019-04-20T00:02:53.429Z,16.83
2019-04-20T00:03:50.168Z,16.96
2019-04-20T00:04:49.434Z,16.88
2019-04-20T00:05:48.991Z,16.93
2019-04-20T00:06:51.653Z,16.76
2019-04-20T00:07:50.094Z,16.85
2019-04-20T00:08:55.624Z,16.79
2019-04-20T00:09:56.628Z,16.88
2019-04-20T00:10:57.070Z,16.82
2019-04-20T00:12:00.078Z,16.82
2019-04-20T00:13:03.897Z,16.82
2019-04-20T00:13:59.359Z,16.91
2019-04-20T00:14:49.938Z,16.83
2019-04-20T00:15:49.266Z,16.88
2019-04-20T00:16:48.857Z,16.89
2019-04-20T00:17:54.229Z,16.83
2019-04-20T00:18:53.931Z,16.81
2019-04-20T00:19:53.823Z,16.85
2019-04-20T00:20:51.419Z,16.79
2019-04-20T00:21:57.751Z,16.70
2019-04-20T00:22:51.963Z,16.88
2019-04-20T00:23:50.160Z,16.78
2019-04-20T00:24:55.678Z,16.71
2019-04-20T00:26:02.283Z,16.82
2019-04-20T00:28:10.957Z,16.78
2019-04-20T00:29:07.113Z,16.64
2019-04-20T00:30:04.010Z,16.64
2019-04-20T00:31:05.562Z,16.64
2019-04-20T00:32:00.598Z,16.57
2019-04-20T00:33:01.082Z,16.60
2019-04-20T00:34:01.871Z,16.63
2019-04-20T00:34:50.664Z,16.57
2019-04-20T00:35:50.329Z,16.58
2019-04-20T00:36:49.768Z,16.52
2019-04-20T00:37:49.166Z,16.57
2019-04-20T00:38:53.608Z,16.61
2019-04-20T00:39:49.197Z,16.43
2019-04-20T00:40:57.662Z,16.50
2019-04-20T00:41:56.066Z,16.50
2019-04-20T00:42:54.838Z,16.50
2019-04-20T00:43:49.269Z,16.41
2019-04-20T00:44:57.621Z,16.43
2019-04-20T00:45:53.701Z,16.46
2019-04-20T00:47:03.154Z,16.42
2019-04-20T00:47:57.316Z,16.38
2019-04-20T00:48:55.893Z,16.41
2019-04-20T00:50:01.286Z,16.41
2019-04-20T00:51:06.919Z,16.46
2019-04-20T00:52:18.869Z,16.43
2019-04-20T00:53:04.670Z,16.43
2019-04-20T00:53:52.306Z,16.39
2019-04-20T00:54:49.523Z,16.41
2019-04-20T00:55:50.733Z,16.42
2019-04-20T00:56:49.825Z,16.38
2019-04-20T00:57:55.368Z,16.35
2019-04-20T00:59:05.512Z,16.39
2019-04-20T01:00:11.156Z,16.35
2019-04-20T01:01:12.824Z,16.25
2019-04-20T01:02:10.822Z,16.15
2019-04-20T01:03:07.922Z,16.20
2019-04-20T01:05:04.537Z,16.00
2019-04-20T01:06:15.227Z,16.00
2019-04-20T01:07:01.394Z,16.00
2019-04-20T01:07:54.709Z,15.89
2019-04-20T01:08:50.822Z,15.76
2019-04-20T01:09:49.918Z,15.78
2019-04-20T01:10:54.162Z,15.78
2019-04-20T01:11:50.106Z,15.80
2019-04-20T01:12:52.028Z,15.84
2019-04-20T01:13:55.372Z,15.78
2019-04-20T01:14:56.873Z,15.75
2019-04-20T01:15:55.338Z,15.74
2019-04-20T01:16:57.950Z,15.67
2019-04-20T01:17:49.756Z,15.76
2019-04-20T01:18:49.767Z,15.74
2019-04-20T01:19:52.720Z,15.68
2019-04-20T01:20:49.796Z,15.72
2019-04-20T01:21:57.899Z,15.65
2019-04-20T01:22:57.222Z,15.65
2019-04-20T01:23:55.188Z,15.57
2019-04-20T01:24:51.603Z,15.60
2019-04-20T01:25:55.807Z,15.54
2019-04-20T01:26:54.907Z,15.51
2019-04-20T01:28:10.433Z,15.51
2019-04-20T01:29:03.937Z,15.53
2019-04-20T01:29:53.245Z,15.49
2019-04-20T01:31:01.310Z,15.41
2019-04-20T01:32:05.756Z,15.51
2019-04-20T01:33:07.790Z,15.54
2019-04-20T01:33:58.486Z,15.53
2019-04-20T01:34:58.574Z,15.49
2019-04-20T01:36:03.556Z,15.47
2019-04-20T01:38:07.038Z,15.41
2019-04-20T01:39:05.667Z,15.41
2019-04-20T01:39:55.006Z,15.29
2019-04-20T01:40:50.565Z,15.38
2019-04-20T01:42:51.182Z,15.34
2019-04-20T01:43:50.246Z,15.34
2019-04-20T01:44:52.357Z,15.35
2019-04-20T01:45:58.677Z,15.38
2019-04-20T01:46:55.235Z,15.38
2019-04-20T01:48:50.598Z,15.31
2019-04-20T01:49:57.488Z,15.35
2019-04-20T01:50:59.633Z,15.29
2019-04-20T01:51:57.491Z,15.31
2019-04-20T01:53:01.572Z,15.28
2019-04-20T01:54:06.622Z,15.29
2019-04-20T01:55:12.711Z,15.27
2019-04-20T01:56:07.229Z,15.25
2019-04-20T01:56:59.242Z,15.23
2019-04-20T01:58:05.067Z,15.21
2019-04-20T01:59:04.541Z,15.17
2019-04-20T01:59:59.697Z,15.13
2019-04-20T02:00:53.036Z,15.11
2019-04-20T02:01:55.631Z,15.14
2019-04-20T02:02:55.471Z,15.13
2019-04-20T02:03:53.527Z,15.02
2019-04-20T02:04:52.547Z,15.02
2019-04-20T02:05:55.619Z,15.02
2019-04-20T02:06:56.417Z,15.01
2019-04-20T02:07:53.512Z,15.03
2019-04-20T02:08:58.351Z,14.92
2019-04-20T02:09:56.816Z,14.88
2019-04-20T02:10:54.381Z,14.86
2019-04-20T02:11:53.386Z,14.95
2019-04-20T02:12:57.359Z,14.89
2019-04-20T02:13:56.614Z,14.80
2019-04-20T02:14:57.032Z,14.80
2019-04-20T02:15:56.009Z,14.75
2019-04-20T02:17:01.474Z,14.70
2019-04-20T02:18:04.777Z,14.70
2019-04-20T02:19:10.923Z,14.75
2019-04-20T02:20:14.351Z,14.61
2019-04-20T02:21:09.669Z,14.69
2019-04-20T02:22:03.865Z,14.65
2019-04-20T02:23:06.793Z,14.58
2019-04-20T02:23:57.255Z,14.61
2019-04-20T02:24:51.022Z,14.62
2019-04-20T02:25:50.737Z,14.57
2019-04-20T02:26:51.969Z,14.54
2019-04-20T02:27:57.832Z,14.62
2019-04-20T02:29:18.945Z,14.58
2019-04-20T02:30:21.704Z,14.54
2019-04-20T02:32:12.041Z,14.50
2019-04-20T02:34:25.697Z,14.46
2019-04-20T02:35:30.128Z,14.35
2019-04-20T02:37:27.730Z,14.37
2019-04-20T02:40:35.842Z,14.33
2019-04-20T02:41:29.914Z,14.32
2019-04-20T02:42:26.530Z,14.37
2019-04-20T02:43:28.465Z,14.32
2019-04-20T02:44:33.906Z,14.35
2019-04-20T02:45:36.637Z,14.32
2019-04-20T02:46:24.917Z,14.24
2019-04-20T02:47:31.734Z,14.21
2019-04-20T02:48:25.293Z,14.29
2019-04-20T02:51:23.241Z,14.15
2019-04-20T02:52:32.293Z,14.20
2019-04-20T02:54:19.048Z,14.15
2019-04-20T02:55:26.820Z,14.10
2019-04-20T02:58:22.896Z,14.18
2019-04-20T03:00:22.065Z,14.15
2019-04-20T03:01:13.235Z,14.20
2019-04-20T03:02:13.030Z,14.14
2019-04-20T03:03:03.475Z,14.20
2019-04-20T03:03:57.662Z,14.18
2019-04-20T03:05:08.152Z,14.15
2019-04-20T03:06:06.371Z,14.10
2019-04-20T03:07:09.009Z,14.15
2019-04-20T03:08:16.413Z,14.20
2019-04-20T03:09:16.327Z,14.22
2019-04-20T03:10:11.263Z,14.27
2019-04-20T03:11:23.462Z,14.10
2019-04-20T03:12:21.193Z,14.15
2019-04-20T03:13:15.641Z,14.21
2019-04-20T03:14:09.277Z,14.07
2019-04-20T03:15:12.936Z,14.07
2019-04-20T03:16:12.375Z,14.03
2019-04-20T03:18:17.966Z,14.03
2019-04-20T03:19:09.373Z,14.04
2019-04-20T03:21:12.770Z,14.00
2019-04-20T03:22:14.853Z,13.91
2019-04-20T03:23:26.118Z,13.91
2019-04-20T03:24:21.518Z,13.91
2019-04-20T03:25:11.390Z,14.04
2019-04-20T03:26:11.940Z,13.89
2019-04-20T03:27:09.867Z,13.97
2019-04-20T03:28:14.074Z,13.97
2019-04-20T03:29:06.691Z,13.97
2019-04-20T03:30:39.785Z,13.96
2019-04-20T03:34:40.965Z,13.91
2019-04-20T03:35:20.571Z,13.88
2019-04-20T03:36:25.200Z,13.89
2019-04-20T03:37:24.508Z,13.92
2019-04-20T03:38:15.660Z,13.85
2019-04-20T03:39:11.548Z,13.92
2019-04-20T03:40:08.298Z,13.87
2019-04-20T03:41:05.127Z,13.91
2019-04-20T03:41:56.661Z,13.88
2019-04-20T03:42:54.805Z,13.88
2019-04-20T03:44:01.033Z,13.91
2019-04-20T03:45:59.588Z,13.89
2019-04-20T03:46:57.316Z,13.89
2019-04-20T03:48:03.010Z,13.87
2019-04-20T03:49:09.522Z,13.84
2019-04-20T03:50:22.430Z,13.85
2019-04-20T03:51:17.048Z,13.79
2019-04-20T03:52:12.232Z,13.87
2019-04-20T03:53:19.259Z,13.79
2019-04-20T03:54:08.553Z,13.82
2019-04-20T03:55:12.830Z,13.79
2019-04-20T03:56:18.394Z,13.77
2019-04-20T03:57:23.596Z,13.67
2019-04-20T03:58:15.299Z,13.71
2019-04-20T03:59:08.798Z,13.73
2019-04-20T04:00:09.987Z,13.63
2019-04-20T04:01:12.556Z,13.55
2019-04-20T04:02:41.232Z,13.59
2019-04-20T04:03:22.818Z,13.55
2019-04-20T04:04:16.899Z,13.63
2019-04-20T04:05:12.557Z,13.62
2019-04-20T04:06:07.720Z,13.62
2019-04-20T04:06:56.636Z,13.62
2019-04-20T04:08:06.201Z,13.60
2019-04-20T04:09:07.306Z,13.59
2019-04-20T04:10:09.731Z,13.59
2019-04-20T04:11:12.371Z,13.55
2019-04-20T04:12:06.620Z,13.46
2019-04-20T04:12:54.614Z,13.59
2019-04-20T04:13:54.642Z,13.46
2019-04-20T04:14:55.678Z,13.55
2019-04-20T04:15:59.336Z,13.44
2019-04-20T04:16:57.021Z,13.44
2019-04-20T04:19:07.358Z,13.39
2019-04-20T04:20:01.065Z,13.42
2019-04-20T04:21:01.425Z,13.41
2019-04-20T04:22:08.906Z,13.38
2019-04-20T04:23:10.511Z,13.39
2019-04-20T04:24:08.063Z,13.36
2019-04-20T04:25:01.742Z,13.29
2019-04-20T04:26:13.048Z,13.30
2019-04-20T04:27:08.178Z,13.33
2019-04-20T04:28:10.586Z,13.36
2019-04-20T04:30:11.954Z,13.30
2019-04-20T04:31:16.426Z,13.28
2019-04-20T04:32:23.523Z,13.33
2019-04-20T04:33:40.237Z,13.26
2019-04-20T04:34:12.596Z,13.19
2019-04-20T04:35:09.268Z,13.29
2019-04-20T04:36:10.442Z,13.23
2019-04-20T04:37:17.637Z,13.22
2019-04-20T04:38:15.258Z,13.25
2019-04-20T04:39:19.234Z,13.32
2019-04-20T04:40:22.353Z,13.33
2019-04-20T04:41:20.259Z,13.36
2019-04-20T04:42:16.673Z,13.36
2019-04-20T04:43:18.714Z,13.42
2019-04-20T04:44:08.667Z,13.39
2019-04-20T04:45:00.780Z,13.39
2019-04-20T04:45:53.303Z,13.39
2019-04-20T04:46:58.497Z,13.42
2019-04-20T04:47:53.655Z,13.42
2019-04-20T04:48:54.789Z,13.44
2019-04-20T04:49:59.947Z,13.39
2019-04-20T04:50:59.132Z,13.42
2019-04-20T04:52:02.279Z,13.44
2019-04-20T04:53:02.512Z,13.33
2019-04-20T04:53:59.884Z,13.41
2019-04-20T04:55:05.249Z,13.39
2019-04-20T04:55:58.537Z,13.36
2019-04-20T04:56:52.926Z,13.30
2019-04-20T04:57:53.792Z,13.25
2019-04-20T04:58:53.834Z,13.33
2019-04-20T04:59:53.537Z,13.22
2019-04-20T05:01:03.922Z,13.29
2019-04-20T05:01:55.453Z,13.30
2019-04-20T05:02:59.041Z,13.23
2019-04-20T05:04:24.779Z,13.23
2019-04-20T05:05:17.619Z,13.30
2019-04-20T05:06:16.740Z,13.36
2019-04-20T05:07:07.718Z,13.28
2019-04-20T05:08:02.917Z,13.30
2019-04-20T05:08:58.470Z,13.28
2019-04-20T05:09:53.142Z,13.29
2019-04-20T05:10:54.156Z,13.30
2019-04-20T05:11:59.966Z,13.30
2019-04-20T05:12:54.698Z,13.29
2019-04-20T05:13:58.581Z,13.36
2019-04-20T05:15:03.621Z,13.36
2019-04-20T05:16:07.542Z,13.41
2019-04-20T05:17:07.738Z,13.42
2019-04-20T05:18:11.852Z,13.42
2019-04-20T05:19:19.609Z,13.39
2019-04-20T05:20:14.685Z,13.38
2019-04-20T05:21:15.409Z,13.44
2019-04-20T05:22:16.329Z,13.42
2019-04-20T05:23:11.471Z,13.48
2019-04-20T05:24:07.614Z,13.46
2019-04-20T05:25:12.951Z,13.51
2019-04-20T05:26:13.791Z,13.49
2019-04-20T05:27:14.678Z,13.59
2019-04-20T05:28:09.598Z,13.60
2019-04-20T05:29:53.280Z,13.63
2019-04-20T05:30:59.193Z,13.62
2019-04-20T05:32:00.833Z,13.63
2019-04-20T05:33:01.657Z,13.64
2019-04-20T05:34:14.408Z,13.71
2019-04-20T05:35:19.675Z,13.57
2019-04-20T05:36:14.727Z,13.63
2019-04-20T05:37:24.010Z,13.71
2019-04-20T05:38:25.640Z,13.71
2019-04-20T05:39:21.309Z,13.73
2019-04-20T05:40:17.261Z,13.71
2019-04-20T05:41:11.434Z,13.81
2019-04-20T05:42:20.280Z,13.79
2019-04-20T05:43:13.126Z,13.82
2019-04-20T05:44:11.260Z,13.82
2019-04-20T05:45:11.550Z,13.85
2019-04-20T05:46:18.182Z,13.87
2019-04-20T05:47:11.226Z,13.85
2019-04-20T05:48:09.274Z,13.89
2019-04-20T05:49:20.700Z,13.88
2019-04-20T05:50:05.063Z,13.84
2019-04-20T05:51:21.596Z,13.95
2019-04-20T05:52:26.294Z,14.02
2019-04-20T05:53:14.451Z,13.91
2019-04-20T05:54:13.515Z,13.97
2019-04-20T05:55:14.698Z,13.96
2019-04-20T05:56:09.131Z,14.09
2019-04-20T05:57:23.652Z,14.04
2019-04-20T05:58:17.632Z,14.15
2019-04-20T05:59:13.895Z,14.21
2019-04-20T06:00:16.014Z,14.24
2019-04-20T06:01:13.516Z,14.32
2019-04-20T06:02:19.923Z,14.32
2019-04-20T06:03:12.770Z,14.37
2019-04-20T06:04:10.653Z,14.35
2019-04-20T06:05:17.765Z,14.36
2019-04-20T06:06:16.817Z,14.46
2019-04-20T06:07:18.337Z,14.50
2019-04-20T06:08:24.423Z,14.55
2019-04-20T06:09:20.991Z,14.50
2019-04-20T06:10:22.205Z,14.54
2019-04-20T06:11:19.263Z,14.61
2019-04-20T06:12:20.998Z,14.61
2019-04-20T06:13:11.416Z,14.62
2019-04-20T06:14:02.374Z,14.64
2019-04-20T06:15:10.670Z,14.73
2019-04-20T06:16:13.841Z,14.72
2019-04-20T06:17:15.909Z,14.75
2019-04-20T06:18:13.259Z,14.72
2019-04-20T06:19:24.413Z,14.81
2019-04-20T06:20:16.882Z,14.75
2019-04-20T06:21:29.692Z,14.78
2019-04-20T06:22:20.438Z,14.81
2019-04-20T06:23:19.561Z,14.88
2019-04-20T06:24:18.384Z,14.95
2019-04-20T06:25:30.819Z,14.98
2019-04-20T06:26:30.141Z,15.03
2019-04-20T06:28:14.905Z,15.02
2019-04-20T06:29:10.190Z,15.03
2019-04-20T06:30:12.265Z,14.99
2019-04-20T06:31:22.775Z,15.13
2019-04-20T06:32:23.335Z,15.17
2019-04-20T06:33:24.427Z,15.13
2019-04-20T06:34:25.829Z,15.19
2019-04-20T06:35:29.173Z,15.19
2019-04-20T06:36:25.268Z,15.35
2019-04-20T06:37:10.178Z,15.32
2019-04-20T06:38:38.662Z,15.49
2019-04-20T06:39:22.537Z,15.47
2019-04-20T06:40:35.114Z,15.49
2019-04-20T06:41:21.117Z,15.59
2019-04-20T06:42:14.768Z,15.67
2019-04-20T06:43:11.158Z,15.69
2019-04-20T06:44:26.436Z,15.76
2019-04-20T06:45:20.276Z,15.72
2019-04-20T06:46:15.207Z,15.86
2019-04-20T06:47:16.220Z,15.86
2019-04-20T06:48:26.879Z,15.86
2019-04-20T06:49:25.656Z,15.94
2019-04-20T06:50:14.199Z,16.05
2019-04-20T06:51:20.362Z,16.07
2019-04-20T06:52:23.141Z,16.23
2019-04-20T06:53:23.897Z,16.11
2019-04-20T06:54:08.153Z,16.28
2019-04-20T06:55:09.783Z,16.24
2019-04-20T06:56:18.111Z,16.27
2019-04-20T06:57:18.451Z,16.38
2019-04-20T06:58:31.885Z,16.35
2019-04-20T06:59:20.015Z,16.42
2019-04-20T07:00:15.584Z,16.49
2019-04-20T07:01:15.677Z,16.57
2019-04-20T07:02:21.888Z,16.57
2019-04-20T07:03:32.875Z,16.64
2019-04-20T07:04:37.665Z,16.60
2019-04-20T07:05:21.119Z,16.75
2019-04-20T07:06:29.395Z,16.83
2019-04-20T07:07:18.394Z,16.88
2019-04-20T07:08:37.386Z,16.76
2019-04-20T07:09:23.448Z,16.82
2019-04-20T07:10:18.297Z,16.93
2019-04-20T07:11:18.331Z,16.93
2019-04-20T07:12:12.627Z,16.98
2019-04-20T07:13:07.754Z,17.07
2019-04-20T07:14:04.080Z,17.14
2019-04-20T07:15:15.071Z,17.06
2019-04-20T07:16:18.282Z,17.21
2019-04-20T07:17:26.704Z,17.15
2019-04-20T07:18:17.249Z,17.25
2019-04-20T07:19:15.399Z,17.36
2019-04-20T07:20:10.306Z,17.38
2019-04-20T07:21:35.640Z,17.46
2019-04-20T07:22:25.331Z,17.40
2019-04-20T07:23:24.276Z,17.44
2019-04-20T07:24:17.318Z,17.48
2019-04-20T07:25:16.077Z,17.59
2019-04-20T07:26:23.910Z,17.62
2019-04-20T07:27:13.616Z,17.58
2019-04-20T07:28:24.125Z,17.64
2019-04-20T07:29:22.424Z,17.70
2019-04-20T07:30:12.104Z,17.71
2019-04-20T07:31:13.162Z,17.74
2019-04-20T07:32:11.707Z,17.75
2019-04-20T07:33:18.582Z,17.87
2019-04-20T07:34:18.364Z,17.89
2019-04-20T07:35:14.419Z,17.92
2019-04-20T07:36:19.885Z,17.95
2019-04-20T07:37:41.957Z,17.96
2019-04-20T07:38:38.135Z,18.02
2019-04-20T07:39:14.582Z,18.05
2019-04-20T07:40:15.132Z,18.10
2019-04-20T07:41:23.584Z,18.14
2019-04-20T07:42:19.158Z,18.12
2019-04-20T07:43:17.418Z,18.23
2019-04-20T07:44:18.783Z,18.30
2019-04-20T07:45:24.065Z,18.25
2019-04-20T07:46:23.859Z,18.25
2019-04-20T07:47:28.294Z,18.30
2019-04-20T07:48:15.378Z,18.27
2019-04-20T07:49:19.247Z,18.33
2019-04-20T07:50:07.657Z,18.44
2019-04-20T07:51:04.819Z,18.47
2019-04-20T07:51:55.549Z,18.51
2019-04-20T07:53:12.231Z,18.52
2019-04-20T07:54:24.585Z,18.58
2019-04-20T07:56:20.784Z,18.60
2019-04-20T07:57:14.753Z,18.62
2019-04-20T07:58:09.902Z,18.66
2019-04-20T07:59:09.560Z,18.73
2019-04-20T08:00:16.317Z,18.73
2019-04-20T08:01:24.221Z,18.65
2019-04-20T08:02:24.962Z,18.72
2019-04-20T08:03:24.699Z,18.76
2019-04-20T08:04:13.004Z,18.69
2019-04-20T08:05:10.999Z,18.69
2019-04-20T08:06:06.918Z,18.76
2019-04-20T08:07:00.514Z,18.81
2019-04-20T08:08:16.900Z,18.84
2019-04-20T08:09:07.183Z,18.87
2019-04-20T08:10:02.478Z,18.92
2019-04-20T08:11:13.826Z,18.92
2019-04-20T08:12:19.482Z,18.88
2019-04-20T08:13:29.076Z,18.99
2019-04-20T08:16:27.732Z,19.23
2019-04-20T08:17:26.826Z,19.19
2019-04-20T08:18:21.578Z,19.25
2019-04-20T08:19:17.364Z,19.26
2019-04-20T08:20:15.969Z,19.21
2019-04-20T08:21:20.982Z,19.33
2019-04-20T08:22:19.800Z,19.32
2019-04-20T08:23:17.056Z,19.37
2019-04-20T08:24:13.136Z,19.46
2019-04-20T08:25:12.543Z,19.46
2019-04-20T08:26:07.867Z,19.48
2019-04-20T08:27:00.554Z,19.54
2019-04-20T08:27:56.985Z,19.62
2019-04-20T08:29:01.590Z,19.65
2019-04-20T08:30:09.228Z,19.65
2019-04-20T08:31:09.377Z,19.68
2019-04-20T08:32:17.966Z,19.68
2019-04-20T08:33:13.378Z,19.65
2019-04-20T08:34:19.920Z,19.77
2019-04-20T08:35:22.893Z,19.76
2019-04-20T08:36:17.052Z,19.77
2019-04-20T08:37:12.897Z,19.78
2019-04-20T08:38:51.607Z,19.78
2019-04-20T08:39:28.174Z,19.84
2019-04-20T08:40:22.330Z,19.91
2019-04-20T08:41:15.278Z,19.84
2019-04-20T08:42:16.227Z,19.87
2019-04-20T08:43:29.894Z,19.98
2019-04-20T08:44:35.517Z,19.87
2019-04-20T08:45:18.069Z,19.95
2019-04-20T08:46:15.611Z,19.92
2019-04-20T08:47:37.873Z,19.94
2019-04-20T08:49:19.418Z,19.95
2019-04-20T08:50:21.196Z,20.01
2019-04-20T08:51:13.129Z,20.06
2019-04-20T08:52:37.685Z,20.03
2019-04-20T08:53:20.238Z,20.14
2019-04-20T08:54:14.343Z,20.21
2019-04-20T08:55:16.940Z,20.24
2019-04-20T08:56:10.887Z,20.29
2019-04-20T08:56:59.953Z,20.35
2019-04-20T08:57:56.551Z,20.47
2019-04-20T08:58:57.388Z,20.42
2019-04-20T08:59:58.048Z,20.38
2019-04-20T09:01:01.625Z,20.54
2019-04-20T09:01:58.926Z,20.57
2019-04-20T09:03:05.711Z,20.58
2019-04-20T09:04:06.601Z,20.54
2019-04-20T09:05:03.201Z,20.55
2019-04-20T09:06:03.262Z,20.62
2019-04-20T09:07:07.712Z,20.62
2019-04-20T09:08:06.913Z,20.76
2019-04-20T09:09:20.715Z,20.70
2019-04-20T09:10:24.373Z,20.85
2019-04-20T09:11:14.386Z,20.89
2019-04-20T09:12:16.748Z,20.85
2019-04-20T09:13:08.280Z,21.01
2019-04-20T09:14:00.140Z,20.94
2019-04-20T09:14:57.371Z,20.94
2019-04-20T09:15:57.787Z,21.01
2019-04-20T09:17:02.855Z,21.09
2019-04-20T09:18:00.885Z,21.09
2019-04-20T09:19:03.360Z,21.13
2019-04-20T09:20:06.285Z,21.29
2019-04-20T09:21:05.717Z,21.34
2019-04-20T09:22:03.214Z,21.31
2019-04-20T09:23:12.924Z,21.29
2019-04-20T09:24:22.680Z,21.28
2019-04-20T09:25:40.649Z,21.25
2019-04-20T09:26:16.271Z,21.46
2019-04-20T09:27:08.757Z,21.52
2019-04-20T09:28:08.423Z,21.46
2019-04-20T09:29:11.138Z,21.59
2019-04-20T09:30:09.427Z,21.62
2019-04-20T09:31:12.286Z,21.64
2019-04-20T09:32:16.789Z,21.64
2019-04-20T09:33:14.315Z,21.59
2019-04-20T09:34:14.478Z,21.62
2019-04-20T09:35:13.744Z,21.65
2019-04-20T09:36:09.679Z,21.69
2019-04-20T09:37:21.383Z,21.62
2019-04-20T09:38:12.171Z,21.68
2019-04-20T09:39:08.568Z,21.71
2019-04-20T09:40:16.076Z,21.72
2019-04-20T09:41:25.310Z,21.80
2019-04-20T09:42:01.504Z,21.79
2019-04-20T09:42:56.960Z,21.86
2019-04-20T09:43:58.246Z,21.84
2019-04-20T09:44:59.523Z,21.86
2019-04-20T09:46:02.088Z,21.96
2019-04-20T09:46:59.916Z,22.03
2019-04-20T09:47:58.355Z,22.06
2019-04-20T09:49:02.155Z,22.10
2019-04-20T09:50:09.334Z,22.14
2019-04-20T09:51:16.940Z,22.20
2019-04-20T09:52:12.166Z,22.21
2019-04-20T09:53:17.417Z,22.22
2019-04-20T09:54:10.880Z,22.27
2019-04-20T09:55:10.788Z,22.21
2019-04-20T09:56:16.896Z,22.33
2019-04-20T09:57:09.376Z,22.37
2019-04-20T09:58:09.537Z,22.52
2019-04-20T09:59:16.609Z,22.57
2019-04-20T10:00:11.795Z,22.49
2019-04-20T10:01:11.114Z,22.49
2019-04-20T10:02:06.667Z,22.65
2019-04-20T10:02:58.256Z,22.58
2019-04-20T10:03:57.277Z,22.54
2019-04-20T10:04:57.761Z,22.45
2019-04-20T10:05:57.323Z,22.52
2019-04-20T10:07:01.099Z,22.51
2019-04-20T10:08:01.179Z,22.46
2019-04-20T10:09:00.486Z,22.57
2019-04-20T10:09:57.848Z,22.55
2019-04-20T10:10:57.407Z,22.60
2019-04-20T10:11:57.585Z,22.57
2019-04-20T10:12:58.367Z,22.60
2019-04-20T10:13:58.566Z,22.64
2019-04-20T10:15:02.583Z,22.61
2019-04-20T10:15:57.782Z,22.58
2019-04-20T10:16:58.001Z,22.65
2019-04-20T10:17:57.492Z,22.76
2019-04-20T10:18:58.751Z,22.77
2019-04-20T10:19:57.797Z,22.75
2019-04-20T10:20:57.967Z,22.88
2019-04-20T10:22:00.942Z,22.85
2019-04-20T10:22:58.471Z,23.01
2019-04-20T10:23:58.893Z,23.07
2019-04-20T10:24:58.657Z,23.17
2019-04-20T10:25:58.581Z,23.04
2019-04-20T10:26:58.760Z,23.17
2019-04-20T10:27:57.862Z,23.05
2019-04-20T10:28:57.675Z,23.10
2019-04-20T10:30:00.699Z,23.13
2019-04-20T10:30:58.932Z,23.17
2019-04-20T10:32:00.679Z,23.35
2019-04-20T10:32:57.721Z,23.33
2019-04-20T10:33:57.731Z,23.46
2019-04-20T10:34:58.926Z,23.43
2019-04-20T10:35:57.770Z,23.46
2019-04-20T10:36:57.783Z,23.32
2019-04-20T10:37:57.838Z,23.27
2019-04-20T10:38:58.257Z,23.36
2019-04-20T10:39:58.515Z,23.43
2019-04-20T10:41:08.161Z,23.57
2019-04-20T10:42:02.132Z,23.57
2019-04-20T10:42:59.840Z,23.60
2019-04-20T10:43:58.756Z,23.61
2019-04-20T10:45:00.324Z,23.53
2019-04-20T10:45:59.023Z,23.61
2019-04-20T10:46:58.783Z,23.50
2019-04-20T10:47:59.046Z,23.60
2019-04-20T10:49:03.716Z,23.58
2019-04-20T10:49:58.903Z,23.54
2019-04-20T10:50:58.938Z,23.50
2019-04-20T10:51:58.082Z,23.53
2019-04-20T10:52:59.529Z,23.55
2019-04-20T10:53:58.364Z,23.60
2019-04-20T10:54:58.641Z,23.54
2019-04-20T10:55:58.100Z,23.54
2019-04-20T10:56:59.338Z,23.55
2019-04-20T10:57:58.136Z,23.70
2019-04-20T10:58:58.120Z,23.70
2019-04-20T10:59:59.533Z,23.55
2019-04-20T11:00:58.161Z,23.61
2019-04-20T11:01:58.182Z,23.57
2019-04-20T11:02:59.608Z,23.66
2019-04-20T11:03:58.765Z,23.73
2019-04-20T11:04:58.851Z,23.76
2019-04-20T11:05:58.584Z,23.85
2019-04-20T11:06:58.640Z,23.88
2019-04-20T11:07:58.805Z,23.80
2019-04-20T11:08:58.573Z,23.85
2019-04-20T11:10:07.905Z,23.87
2019-04-20T11:11:09.061Z,23.90
2019-04-20T11:11:58.732Z,23.88
2019-04-20T11:12:59.132Z,23.93
2019-04-20T11:14:00.809Z,23.87
2019-04-20T11:14:58.726Z,23.90
2019-04-20T11:15:58.395Z,23.97
2019-04-20T11:16:58.488Z,23.88
2019-04-20T11:17:59.613Z,23.70
2019-04-20T11:18:58.436Z,23.72
2019-04-20T11:19:59.196Z,23.88
2019-04-20T11:21:59.325Z,23.91
2019-04-20T11:22:58.516Z,23.84
2019-04-20T11:23:58.515Z,23.87
2019-04-20T11:24:58.627Z,23.84
2019-04-20T11:26:58.562Z,23.91
2019-04-20T11:27:58.628Z,24.09
2019-04-20T11:28:59.948Z,24.12
2019-04-20T11:30:00.201Z,24.30
2019-04-20T11:30:58.637Z,24.31
2019-04-20T11:31:59.451Z,24.27
2019-04-20T11:33:00.153Z,24.18
2019-04-20T11:33:58.678Z,24.09
2019-04-20T11:35:02.243Z,23.98
2019-04-20T11:35:59.167Z,24.02
2019-04-20T11:36:59.228Z,24.13
2019-04-20T11:37:58.730Z,24.28
2019-04-20T11:38:58.798Z,24.37
2019-04-20T11:39:59.081Z,24.46
2019-04-20T11:41:07.387Z,24.52
2019-04-20T11:41:59.520Z,24.53
2019-04-20T11:42:59.546Z,24.64
2019-04-20T11:43:59.780Z,24.60
2019-04-20T11:44:58.847Z,24.64
2019-04-20T11:45:58.943Z,24.69
2019-04-20T11:46:58.913Z,24.69
2019-04-20T11:47:58.891Z,24.50
2019-04-20T11:48:59.472Z,24.57
2019-04-20T11:49:59.574Z,24.67
2019-04-20T11:50:58.948Z,24.65
2019-04-20T11:51:59.454Z,24.69
2019-04-20T11:52:59.323Z,24.71
2019-04-20T11:53:58.987Z,24.77
2019-04-20T11:55:00.188Z,24.87
2019-04-20T11:56:00.344Z,24.69
2019-04-20T11:56:59.437Z,24.57
2019-04-20T11:57:59.045Z,24.55
2019-04-20T11:59:00.935Z,24.52
2019-04-20T11:59:59.422Z,24.55
2019-04-20T12:01:05.105Z,24.58
2019-04-20T12:02:03.707Z,24.65
2019-04-20T12:03:09.620Z,24.67
2019-04-20T12:04:09.286Z,24.77
2019-04-20T12:05:12.796Z,24.84
2019-04-20T12:06:02.922Z,24.81
2019-04-20T12:06:59.186Z,24.65
2019-04-20T12:07:59.195Z,24.71
2019-04-20T12:08:59.271Z,24.71
2019-04-20T12:10:09.172Z,24.87
2019-04-20T12:11:01.776Z,24.96
2019-04-20T12:12:09.277Z,25.05
2019-04-20T12:12:59.693Z,25.14
2019-04-20T12:14:00.572Z,25.09
2019-04-20T12:15:00.805Z,25.08
2019-04-20T12:15:59.499Z,25.08
2019-04-20T12:16:59.647Z,24.98
2019-04-20T12:17:59.862Z,24.96
2019-04-20T12:19:00.175Z,24.81
2019-04-20T12:19:59.965Z,24.81
2019-04-20T12:21:00.803Z,24.93
2019-04-20T12:22:00.034Z,25.08
2019-04-20T12:23:00.199Z,25.17
2019-04-20T12:24:00.371Z,25.25
2019-04-20T12:25:00.449Z,25.32
2019-04-20T12:25:59.804Z,25.28
2019-04-20T12:27:00.724Z,25.45
2019-04-20T12:28:01.890Z,25.45
2019-04-20T12:28:59.539Z,25.38
2019-04-20T12:29:59.653Z,25.25
2019-04-20T12:31:04.045Z,25.15
2019-04-20T12:32:03.481Z,25.30
2019-04-20T12:33:01.685Z,25.25
2019-04-20T12:34:00.208Z,25.42
2019-04-20T12:35:00.245Z,25.55
2019-04-20T12:36:00.387Z,25.60
2019-04-20T12:37:00.762Z,25.61
2019-04-20T12:38:00.769Z,25.61
2019-04-20T12:39:01.155Z,25.60
2019-04-20T12:40:00.816Z,25.40
2019-04-20T12:41:03.125Z,25.47
2019-04-20T12:42:03.968Z,25.32
2019-04-20T12:43:01.251Z,25.47
2019-04-20T12:43:59.779Z,25.52
2019-04-20T12:44:59.797Z,25.51
2019-04-20T12:46:00.039Z,25.55
2019-04-20T12:46:59.827Z,25.47
2019-04-20T12:47:59.844Z,25.43
2019-04-20T12:48:59.864Z,25.32
2019-04-20T12:50:01.289Z,25.30
2019-04-20T12:50:59.896Z,25.42
2019-04-20T12:52:03.458Z,25.57
2019-04-20T12:52:59.929Z,25.50
2019-04-20T12:54:00.544Z,25.40
2019-04-20T12:55:02.775Z,25.40
2019-04-20T12:55:59.985Z,25.51
2019-04-20T12:57:00.497Z,25.57
2019-04-20T12:58:00.642Z,25.58
2019-04-20T12:59:00.043Z,25.60
2019-04-20T13:00:01.490Z,25.54
2019-04-20T13:01:00.551Z,25.62
2019-04-20T13:02:00.074Z,25.67
2019-04-20T13:03:01.178Z,25.69
2019-04-20T13:04:02.885Z,25.67
2019-04-20T13:05:01.589Z,25.73
2019-04-20T13:06:01.696Z,25.87
2019-04-20T13:07:00.159Z,25.97
2019-04-20T13:08:02.361Z,26.07
2019-04-20T13:09:02.155Z,26.05
2019-04-20T13:10:02.152Z,25.85
2019-04-20T13:11:00.465Z,25.72
2019-04-20T13:12:05.288Z,25.69
2019-04-20T13:13:00.507Z,25.57
2019-04-20T13:14:02.107Z,25.57
2019-04-20T13:15:00.362Z,25.58
2019-04-20T13:16:00.562Z,25.69
2019-04-20T13:17:00.321Z,25.94
2019-04-20T13:18:01.223Z,26.01
2019-04-20T13:19:01.505Z,25.95
2019-04-20T13:20:00.370Z,26.05
2019-04-20T13:21:01.530Z,25.92
2019-04-20T13:22:01.104Z,25.92
2019-04-20T13:23:02.701Z,26.05
2019-04-20T13:24:00.900Z,25.90
2019-04-20T13:25:01.092Z,25.51